createdAt,value
2023-08-16T00:01:32.082Z,8.00
2023-08-16T00:03:59.014Z,6.35
2023-08-16T00:06:25.977Z,7.53
2023-08-16T00:08:54.466Z,7.38
2023-08-16T00:11:21.384Z,7.18
2023-08-16T00:13:48.440Z,5.90
2023-08-16T00:16:15.238Z,6.20
2023-08-16T00:18:42.242Z,7.97
2023-08-16T00:21:09.168Z,7.38
2023-08-16T00:23:35.984Z,12.73
2023-08-16T00:26:02.758Z,8.18
2023-08-16T00:28:29.709Z,12.65
2023-08-16T00:30:57.180Z,8.23
2023-08-16T00:33:24.100Z,8.25
2023-08-16T00:35:53.711Z,7.70
2023-08-16T00:38:21.185Z,9.75
2023-08-16T00:40:49.922Z,12.00
2023-08-16T00:43:17.118Z,12.32
2023-08-16T00:45:45.821Z,11.65
2023-08-16T00:48:14.307Z,16.10
2023-08-16T00:50:41.515Z,8.93
2023-08-16T00:53:09.630Z,13.32
2023-08-16T00:55:37.039Z,15.88
2023-08-16T00:58:04.037Z,14.10
2023-08-16T01:00:31.024Z,14.00
2023-08-16T01:02:57.869Z,11.45
2023-08-16T01:05:24.764Z,11.98
2023-08-16T01:07:52.822Z,10.93
2023-08-16T01:10:23.418Z,8.38
2023-08-16T01:13:06.218Z,8.80
2023-08-16T01:15:38.235Z,8.88
2023-08-16T01:18:05.793Z,8.73
2023-08-16T01:20:33.525Z,13.65
2023-08-16T01:23:07.846Z,22.58
2023-08-16T01:25:45.177Z,96.75
2023-08-16T01:28:13.190Z,99.90
2023-08-16T01:30:43.456Z,10.38
2023-08-16T01:33:11.501Z,10.77
2023-08-16T01:35:39.392Z,17.10
2023-08-16T01:38:08.436Z,13.63
2023-08-16T01:41:14.303Z,21.73
2023-08-16T01:43:45.199Z,19.98
2023-08-16T01:46:12.563Z,29.40
2023-08-16T01:48:39.918Z,28.50
2023-08-16T01:51:07.534Z,22.83
2023-08-16T01:53:35.266Z,23.70
2023-08-16T01:56:02.576Z,25.15
2023-08-16T01:58:29.474Z,25.98
2023-08-16T02:00:56.345Z,45.80
2023-08-16T02:03:23.441Z,40.78
2023-08-16T02:05:50.477Z,35.10
2023-08-16T02:08:17.238Z,61.05
2023-08-16T02:10:44.130Z,33.53
2023-08-16T02:13:11.009Z,37.70
2023-08-16T02:15:37.929Z,55.60
2023-08-16T02:18:07.481Z,58.13
2023-08-16T02:20:34.253Z,69.35
2023-08-16T02:23:02.072Z,13.43
2023-08-16T02:25:29.343Z,13.70
2023-08-16T02:27:56.228Z,12.30
2023-08-16T02:30:22.943Z,10.73
2023-08-16T02:32:49.775Z,10.23
2023-08-16T02:35:16.749Z,13.63
2023-08-16T02:37:43.986Z,29.90
2023-08-16T02:40:11.311Z,32.40
2023-08-16T02:42:38.221Z,22.67
2023-08-16T02:45:05.483Z,45.42
2023-08-16T02:47:32.347Z,45.28
2023-08-16T02:49:59.148Z,35.65
2023-08-16T02:52:25.871Z,25.95
2023-08-16T02:54:52.729Z,30.73
2023-08-16T02:57:19.701Z,13.40
2023-08-16T02:59:49.386Z,26.52
2023-08-16T03:06:04.663Z,23.60
2023-08-16T03:08:31.412Z,27.30
2023-08-16T03:10:58.222Z,49.78
2023-08-16T03:13:25.087Z,26.35
2023-08-16T03:15:51.920Z,18.30
2023-08-16T03:18:18.632Z,87.72
2023-08-16T03:20:45.857Z,48.33
2023-08-16T03:23:12.519Z,75.70
2023-08-16T03:25:39.291Z,154.05
2023-08-16T03:28:06.349Z,76.40
2023-08-16T03:30:33.235Z,70.15
2023-08-16T03:33:00.065Z,73.80
2023-08-16T03:35:26.892Z,48.47
2023-08-16T03:37:53.720Z,26.45
2023-08-16T03:40:20.606Z,36.92
2023-08-16T03:42:48.116Z,42.30
2023-08-16T03:45:14.855Z,18.27
2023-08-16T03:47:42.114Z,30.38
2023-08-16T03:50:09.288Z,26.15
2023-08-16T03:52:36.092Z,16.20
2023-08-16T03:55:03.803Z,13.07
2023-08-16T03:57:30.470Z,8.40
2023-08-16T03:59:57.155Z,20.70
2023-08-16T04:02:24.020Z,14.57
2023-08-16T04:04:54.821Z,37.15
2023-08-16T04:07:21.864Z,14.60
2023-08-16T04:09:48.790Z,16.48
2023-08-16T04:12:15.643Z,16.63
2023-08-16T04:14:42.482Z,31.42
2023-08-16T04:17:09.255Z,13.07
2023-08-16T04:19:36.087Z,22.83
2023-08-16T04:22:03.122Z,16.35
2023-08-16T04:24:29.982Z,103.93
2023-08-16T04:26:56.649Z,120.25
2023-08-16T04:29:23.605Z,267.50
2023-08-16T04:31:50.656Z,28.67
2023-08-16T04:34:17.572Z,113.43
2023-08-16T04:36:44.426Z,239.30
2023-08-16T04:39:11.422Z,33.17
2023-08-16T04:41:38.121Z,30.77
2023-08-16T04:44:05.563Z,20.75
2023-08-16T04:46:32.342Z,15.38
2023-08-16T04:48:59.072Z,19.73
2023-08-16T04:51:25.837Z,13.30
2023-08-16T04:53:52.964Z,19.40
2023-08-16T04:56:20.035Z,15.57
2023-08-16T04:58:46.813Z,21.08
2023-08-16T05:01:13.660Z,21.02
2023-08-16T05:03:40.515Z,14.40
2023-08-16T05:06:07.563Z,23.80
2023-08-16T05:08:34.409Z,23.50
2023-08-16T05:11:01.242Z,19.73
2023-08-16T05:13:28.074Z,18.50
2023-08-16T05:15:54.883Z,15.77
2023-08-16T05:18:21.831Z,25.95
2023-08-16T05:20:48.645Z,25.52
2023-08-16T05:23:15.464Z,40.83
2023-08-16T05:25:42.191Z,25.70
2023-08-16T05:28:09.085Z,30.05
2023-08-16T05:30:36.194Z,32.00
2023-08-16T05:33:03.608Z,33.20
2023-08-16T05:35:34.539Z,33.80
2023-08-16T05:38:02.024Z,28.52
2023-08-16T05:40:28.918Z,37.28
2023-08-16T05:42:55.782Z,30.45
2023-08-16T05:45:24.240Z,21.35
2023-08-16T05:47:51.104Z,28.63
2023-08-16T05:50:17.975Z,31.83
2023-08-16T05:52:44.735Z,25.92
2023-08-16T05:55:11.503Z,25.88
2023-08-16T05:57:38.341Z,28.23
2023-08-16T06:00:05.614Z,35.42
2023-08-16T06:02:32.520Z,28.40
2023-08-16T06:05:00.258Z,33.83
2023-08-16T06:07:27.807Z,43.15
2023-08-16T06:09:54.565Z,31.45
2023-08-16T06:12:21.411Z,36.42
2023-08-16T06:14:48.205Z,47.97
2023-08-16T06:17:15.021Z,41.65
2023-08-16T06:19:41.931Z,44.33
2023-08-16T06:22:08.761Z,55.70
2023-08-16T06:24:36.900Z,29.15
2023-08-16T06:27:03.864Z,36.72
2023-08-16T06:29:31.081Z,43.10
2023-08-16T06:31:57.903Z,41.38
2023-08-16T06:34:25.560Z,39.83
2023-08-16T06:36:52.475Z,39.70
2023-08-16T06:39:19.253Z,30.77
2023-08-16T06:41:46.171Z,25.80
2023-08-16T06:44:12.957Z,31.67
2023-08-16T06:46:39.907Z,29.48
2023-08-16T06:49:06.856Z,32.72
2023-08-16T06:51:33.772Z,21.60
2023-08-16T06:54:00.436Z,24.60
2023-08-16T06:56:27.225Z,26.85
2023-08-16T06:58:54.326Z,26.00
2023-08-16T07:01:21.216Z,28.40
2023-08-16T07:03:49.431Z,25.77
2023-08-16T07:06:16.390Z,25.67
2023-08-16T07:08:43.380Z,26.73
2023-08-16T07:11:10.226Z,23.58
2023-08-16T07:13:37.100Z,29.50
2023-08-16T07:16:04.089Z,28.33
2023-08-16T07:18:30.872Z,24.75
2023-08-16T07:20:57.779Z,29.05
2023-08-16T07:23:24.662Z,29.15
2023-08-16T07:26:00.561Z,28.90
2023-08-16T07:28:27.497Z,26.50
2023-08-16T07:30:55.351Z,28.35
2023-08-16T07:33:23.233Z,28.98
2023-08-16T07:35:50.864Z,22.60
2023-08-16T07:38:17.860Z,26.25
2023-08-16T07:40:48.896Z,25.27
2023-08-16T07:43:16.342Z,25.50
2023-08-16T07:45:43.148Z,24.33
2023-08-16T07:48:10.012Z,22.30
2023-08-16T07:50:37.721Z,25.55
2023-08-16T07:53:04.816Z,31.13
2023-08-16T07:55:35.100Z,25.13
2023-08-16T07:58:02.013Z,23.80
2023-08-16T08:00:28.897Z,24.25
2023-08-16T08:03:00.410Z,21.73
2023-08-16T08:05:28.032Z,23.83
2023-08-16T08:07:55.190Z,23.27
2023-08-16T08:10:22.115Z,24.02
2023-08-16T08:12:49.012Z,22.58
2023-08-16T08:15:16.049Z,19.58
2023-08-16T08:17:42.917Z,22.38
2023-08-16T08:20:10.414Z,21.15
2023-08-16T08:22:37.383Z,21.88
2023-08-16T08:25:05.584Z,21.50
2023-08-16T08:27:32.539Z,26.13
2023-08-16T08:29:59.408Z,19.08
2023-08-16T08:32:26.506Z,19.90
2023-08-16T08:34:53.505Z,16.88
2023-08-16T08:37:20.477Z,18.92
2023-08-16T08:39:47.364Z,18.83
2023-08-16T08:42:14.476Z,18.38
2023-08-16T08:44:43.885Z,18.95
2023-08-16T08:47:16.490Z,16.70
2023-08-16T08:49:44.317Z,15.30
2023-08-16T08:52:11.645Z,14.65
2023-08-16T08:54:38.623Z,18.23
2023-08-16T08:57:06.516Z,22.77
2023-08-16T08:59:35.513Z,17.70
2023-08-16T09:02:03.000Z,16.90
2023-08-16T09:04:31.990Z,14.98
2023-08-16T09:07:01.074Z,10.23
2023-08-16T09:09:28.226Z,10.27
2023-08-16T09:11:55.011Z,9.63
2023-08-16T09:14:21.811Z,7.97
2023-08-16T09:16:48.699Z,6.70
2023-08-16T09:19:16.282Z,5.60
2023-08-16T09:21:43.877Z,6.97
2023-08-16T09:24:11.236Z,7.38
2023-08-16T09:26:38.859Z,5.55
2023-08-16T09:29:05.915Z,4.70
2023-08-16T09:31:40.625Z,5.30
2023-08-16T09:34:07.940Z,5.63
2023-08-16T09:36:38.561Z,117.35
2023-08-16T09:39:12.922Z,104.55
2023-08-16T09:41:52.791Z,84.97
2023-08-16T09:44:20.455Z,10.98
2023-08-16T09:49:17.676Z,6.72
2023-08-16T09:54:18.321Z,6.13
2023-08-16T10:04:20.844Z,7.15
2023-08-16T10:09:20.606Z,7.45
2023-08-16T10:11:49.762Z,8.07
2023-08-16T10:14:16.580Z,7.05
2023-08-16T10:16:46.608Z,4.18
2023-08-16T10:19:15.209Z,3.95
2023-08-16T10:21:47.957Z,3.95
2023-08-16T10:24:32.334Z,3.72
2023-08-16T10:27:03.284Z,3.60
2023-08-16T10:29:36.951Z,3.47
2023-08-16T10:32:09.693Z,3.72
2023-08-16T10:34:37.029Z,3.63
2023-08-16T10:37:04.738Z,3.97
2023-08-16T10:39:31.988Z,4.00
2023-08-16T10:42:06.913Z,3.78
2023-08-16T10:44:34.136Z,4.07
2023-08-16T10:47:01.428Z,3.90
2023-08-16T10:49:38.020Z,3.65
2023-08-16T10:52:05.297Z,3.97
2023-08-16T10:54:36.594Z,6.05
2023-08-16T10:57:06.238Z,4.30
2023-08-16T10:59:40.218Z,5.65
2023-08-16T11:02:19.313Z,6.90
2023-08-16T11:04:47.418Z,4.43
2023-08-16T11:07:19.227Z,4.65
2023-08-16T11:09:46.633Z,5.30
2023-08-16T11:12:15.763Z,4.40
2023-08-16T11:14:44.926Z,4.82
2023-08-16T11:17:16.043Z,5.00
2023-08-16T11:19:43.499Z,4.60
2023-08-16T11:22:13.035Z,4.70
2023-08-16T11:24:40.142Z,4.15
2023-08-16T11:27:07.888Z,7.68
2023-08-16T11:29:35.290Z,6.50
2023-08-16T11:32:02.140Z,4.22
2023-08-16T11:34:32.744Z,4.78
2023-08-16T11:36:59.799Z,6.43
2023-08-16T11:39:28.388Z,4.57
2023-08-16T11:41:55.291Z,4.38
2023-08-16T11:44:22.336Z,5.55
2023-08-16T11:46:50.552Z,3.90
2023-08-16T11:49:22.454Z,5.47
2023-08-16T11:51:49.409Z,4.00
2023-08-16T11:54:24.395Z,4.25
2023-08-16T11:56:52.220Z,4.10
2023-08-16T11:59:30.043Z,3.90
2023-08-16T12:01:57.507Z,4.20
2023-08-16T12:04:25.731Z,3.90
2023-08-16T12:06:53.265Z,4.10
2023-08-16T12:09:20.263Z,3.92
2023-08-16T12:11:51.690Z,3.72
2023-08-16T12:14:18.719Z,4.03
2023-08-16T12:16:45.412Z,4.20
2023-08-16T12:19:19.300Z,3.65
2023-08-16T12:21:46.241Z,4.15
2023-08-16T12:24:12.981Z,3.70
2023-08-16T12:26:39.798Z,3.92
2023-08-16T12:29:06.676Z,7.30
2023-08-16T12:31:35.329Z,3.72
2023-08-16T12:34:02.944Z,3.72
2023-08-16T12:36:29.815Z,3.97
2023-08-16T12:38:56.564Z,4.55
2023-08-16T12:41:23.406Z,4.00
2023-08-16T12:43:52.137Z,4.85
2023-08-16T12:46:19.160Z,4.57
2023-08-16T12:48:47.301Z,4.20
2023-08-16T12:51:17.564Z,3.33
2023-08-16T12:53:45.822Z,3.63
2023-08-16T12:56:13.823Z,4.75
2023-08-16T12:58:56.124Z,4.20
2023-08-16T13:01:24.227Z,5.10
2023-08-16T13:06:31.132Z,4.63
2023-08-16T13:11:34.536Z,4.90
2023-08-16T13:14:03.520Z,5.78
2023-08-16T13:16:31.703Z,5.22
2023-08-16T13:24:23.386Z,5.75
2023-08-16T13:29:29.867Z,5.13
2023-08-16T13:32:02.544Z,4.50
2023-08-16T13:37:25.136Z,4.32
2023-08-16T13:42:36.759Z,4.60
2023-08-16T13:47:35.283Z,10.10
2023-08-16T13:50:02.061Z,5.10
2023-08-16T13:52:29.455Z,5.65
2023-08-16T13:54:56.804Z,4.68
2023-08-16T13:57:24.057Z,5.45
2023-08-16T13:59:50.859Z,4.68
2023-08-16T14:02:17.671Z,4.53
2023-08-16T14:04:44.541Z,5.78
2023-08-16T14:07:11.262Z,4.80
2023-08-16T14:09:38.112Z,4.25
2023-08-16T14:12:05.266Z,4.20
2023-08-16T14:14:32.102Z,4.07
2023-08-16T14:16:59.035Z,4.55
2023-08-16T14:19:26.750Z,3.83
2023-08-16T14:21:57.163Z,4.13
2023-08-16T14:24:26.024Z,4.28
2023-08-16T14:26:52.878Z,4.10
2023-08-16T14:29:19.624Z,4.43
2023-08-16T14:31:46.684Z,7.53
2023-08-16T14:34:14.140Z,6.25
2023-08-16T14:36:40.967Z,5.35
2023-08-16T14:39:08.497Z,4.63
2023-08-16T14:41:35.259Z,4.10
2023-08-16T14:44:02.032Z,4.05
2023-08-16T14:46:28.974Z,4.38
2023-08-16T14:48:56.244Z,4.28
2023-08-16T14:51:23.281Z,3.80
2023-08-16T14:53:50.152Z,4.20
2023-08-16T14:56:16.949Z,7.18
2023-08-16T14:58:44.051Z,4.20
2023-08-16T15:01:11.034Z,4.40
2023-08-16T15:03:38.567Z,4.57
2023-08-16T15:06:05.955Z,5.07
2023-08-16T15:08:36.723Z,5.75
2023-08-16T15:11:20.253Z,3.97
2023-08-16T15:13:47.075Z,3.88
2023-08-16T15:16:15.333Z,3.72
2023-08-16T15:18:42.408Z,4.30
2023-08-16T15:21:09.267Z,4.30
2023-08-16T15:23:38.141Z,5.32
2023-08-16T15:26:07.338Z,3.83
2023-08-16T15:28:36.812Z,4.03
2023-08-16T15:31:04.360Z,4.22
2023-08-16T15:33:31.337Z,5.95
2023-08-16T15:35:58.443Z,5.00
2023-08-16T15:38:46.043Z,4.50
2023-08-16T15:41:13.230Z,6.65
2023-08-16T15:43:41.141Z,4.18
2023-08-16T15:46:09.470Z,4.43
2023-08-16T15:48:36.862Z,4.30
2023-08-16T15:51:03.855Z,4.07
2023-08-16T15:53:30.972Z,4.40
2023-08-16T15:55:57.803Z,5.13
2023-08-16T15:58:28.226Z,6.00
2023-08-16T16:01:03.015Z,3.72
2023-08-16T16:03:31.239Z,4.07
2023-08-16T16:05:58.496Z,6.07
2023-08-16T16:08:25.772Z,3.80
2023-08-16T16:10:52.648Z,4.40
2023-08-16T16:13:19.461Z,3.72
2023-08-16T16:15:47.331Z,4.20
2023-08-16T16:18:14.255Z,4.20
2023-08-16T16:20:41.247Z,4.10
2023-08-16T16:23:08.245Z,4.47
2023-08-16T16:25:35.231Z,7.60
2023-08-16T16:28:02.452Z,8.25
2023-08-16T16:30:29.544Z,8.30
2023-08-16T16:32:56.637Z,4.00
2023-08-16T16:35:25.866Z,3.92
2023-08-16T16:37:53.094Z,4.95
2023-08-16T16:40:19.990Z,4.85
2023-08-16T16:42:47.714Z,4.35
2023-08-16T16:45:14.612Z,3.33
2023-08-16T16:47:41.799Z,3.78
2023-08-16T16:50:09.538Z,3.28
2023-08-16T16:52:37.390Z,4.10
2023-08-16T16:55:05.485Z,3.22
2023-08-16T16:57:33.888Z,3.35
2023-08-16T17:00:01.759Z,3.35
2023-08-16T17:02:29.003Z,3.33
2023-08-16T17:04:56.062Z,4.65
2023-08-16T17:07:23.012Z,6.22
2023-08-16T17:09:49.850Z,5.03
2023-08-16T17:12:16.881Z,4.32
2023-08-16T17:14:43.838Z,3.65
2023-08-16T17:17:11.148Z,3.35
2023-08-16T17:19:37.999Z,3.90
2023-08-16T17:22:06.321Z,4.50
2023-08-16T17:24:33.236Z,6.03
2023-08-16T17:27:00.296Z,3.95
2023-08-16T17:29:27.415Z,4.57
2023-08-16T17:31:54.298Z,5.07
2023-08-16T17:34:21.699Z,6.80
2023-08-16T17:36:48.590Z,5.05
2023-08-16T17:39:15.306Z,4.20
2023-08-16T17:41:42.170Z,6.20
2023-08-16T17:44:09.535Z,7.82
2023-08-16T17:46:36.465Z,27.85
2023-08-16T17:49:03.387Z,11.25
2023-08-16T17:51:30.222Z,5.55
2023-08-16T17:53:56.937Z,5.97
2023-08-16T17:56:23.609Z,3.90
2023-08-16T17:58:50.424Z,5.10
2023-08-16T18:01:17.283Z,3.20
2023-08-16T18:03:44.188Z,3.35
2023-08-16T18:06:11.009Z,5.20
2023-08-16T18:08:37.857Z,3.60
2023-08-16T18:11:04.679Z,5.90
2023-08-16T18:13:31.734Z,3.92
2023-08-16T18:15:58.593Z,4.07
2023-08-16T18:18:25.929Z,5.03
2023-08-16T18:20:56.339Z,5.10
2023-08-16T18:23:23.594Z,3.45
2023-08-16T18:25:50.804Z,3.55
2023-08-16T18:28:20.152Z,2.67
2023-08-16T18:30:49.998Z,1.90
2023-08-16T18:33:17.061Z,9.27
2023-08-16T18:35:44.094Z,4.60
2023-08-16T18:38:11.040Z,6.53
2023-08-16T18:40:37.880Z,7.50
2023-08-16T18:43:04.737Z,7.53
2023-08-16T18:45:31.583Z,12.02
2023-08-16T18:47:58.412Z,51.22
2023-08-16T18:50:27.551Z,38.92
2023-08-16T18:52:56.547Z,54.70
2023-08-16T18:55:23.426Z,33.05
2023-08-16T18:57:50.301Z,16.85
2023-08-16T19:00:17.386Z,8.80
2023-08-16T19:02:44.088Z,8.65
2023-08-16T19:05:10.986Z,9.93
2023-08-16T19:07:37.823Z,8.02
2023-08-16T19:10:05.210Z,11.15
2023-08-16T19:12:32.254Z,7.65
2023-08-16T19:14:59.196Z,11.57
2023-08-16T19:17:26.345Z,8.70
2023-08-16T19:19:54.147Z,5.25
2023-08-16T19:22:21.080Z,4.20
2023-08-16T19:24:47.944Z,6.53
2023-08-16T19:27:16.424Z,6.38
2023-08-16T19:29:43.234Z,6.55
2023-08-16T19:32:10.008Z,6.95
2023-08-16T19:34:37.021Z,6.90
2023-08-16T19:37:03.995Z,8.20
2023-08-16T19:39:31.224Z,4.30
2023-08-16T19:41:58.152Z,3.83
2023-08-16T19:44:24.934Z,3.35
2023-08-16T19:46:51.710Z,3.10
2023-08-16T19:49:18.882Z,3.33
2023-08-16T19:51:45.648Z,6.07
2023-08-16T19:54:12.411Z,3.88
2023-08-16T19:56:39.491Z,4.40
2023-08-16T19:59:06.369Z,4.82
2023-08-16T20:01:34.671Z,5.38
2023-08-16T20:04:03.100Z,3.70
2023-08-16T20:06:30.137Z,4.18
2023-08-16T20:08:56.963Z,7.95
2023-08-16T20:11:23.799Z,3.47
2023-08-16T20:13:50.604Z,7.25
2023-08-16T20:16:17.349Z,4.90
2023-08-16T20:54:39.752Z,0.20
2023-08-16T20:57:06.641Z,0.20
2023-08-16T20:59:33.446Z,0.40
2023-08-16T21:02:00.257Z,0.20
2023-08-16T21:04:27.028Z,0.10
2023-08-16T21:06:53.798Z,0.22
2023-08-16T21:09:20.528Z,0.20
2023-08-16T21:11:47.248Z,0.70
2023-08-16T21:14:14.096Z,0.10
2023-08-16T21:16:41.005Z,0.10
2023-08-16T21:19:08.019Z,0.10
2023-08-16T21:21:35.054Z,0.15
2023-08-16T21:24:01.910Z,0.30
2023-08-16T21:26:28.791Z,0.40
2023-08-16T21:28:55.612Z,0.35
2023-08-16T21:31:22.596Z,0.30
2023-08-16T21:33:49.495Z,0.20
2023-08-16T21:36:16.384Z,0.10
2023-08-16T21:38:43.128Z,0.30
2023-08-16T21:41:09.887Z,0.38
2023-08-16T21:43:36.651Z,0.30
2023-08-16T21:46:03.528Z,0.50
2023-08-16T21:48:30.484Z,0.38
2023-08-16T21:50:57.248Z,0.20
2023-08-16T21:53:24.113Z,0.50
2023-08-16T21:55:53.640Z,0.15
2023-08-16T21:58:23.081Z,0.15
2023-08-16T22:00:50.201Z,0.22
2023-08-16T22:03:17.228Z,0.22
2023-08-16T22:05:44.004Z,0.22
2023-08-16T22:08:12.140Z,0.47
2023-08-16T22:10:38.920Z,0.10
2023-08-16T22:13:05.724Z,0.32
2023-08-16T22:15:32.604Z,1.23
2023-08-16T22:17:59.383Z,0.77
2023-08-16T22:20:26.363Z,0.30
2023-08-16T22:22:53.184Z,0.20
2023-08-16T22:25:20.915Z,0.38
2023-08-16T22:27:48.215Z,0.40
2023-08-16T22:30:15.614Z,0.35
2023-08-16T22:32:42.427Z,0.73
2023-08-16T22:35:09.690Z,0.10
2023-08-16T22:37:36.546Z,1.27
2023-08-16T22:40:03.689Z,0.20
2023-08-16T22:45:20.335Z,0.15
2023-08-16T22:47:47.317Z,0.15
2023-08-16T22:50:14.105Z,0.30
2023-08-16T22:52:41.566Z,1.75
2023-08-16T22:55:08.564Z,0.28
2023-08-16T22:57:35.384Z,0.50
2023-08-16T23:00:02.714Z,0.32
2023-08-16T23:02:29.458Z,0.77
2023-08-16T23:04:56.399Z,0.40
2023-08-16T23:07:23.403Z,0.10
2023-08-16T23:09:50.315Z,0.30
2023-08-16T23:12:17.066Z,0.63
2023-08-16T23:14:43.807Z,0.50
2023-08-16T23:17:10.524Z,2.08
2023-08-16T23:19:37.280Z,0.80
2023-08-16T23:22:04.084Z,0.25
2023-08-16T23:24:31.486Z,0.95
2023-08-16T23:26:58.405Z,0.45
2023-08-16T23:29:25.365Z,0.70
2023-08-16T23:31:52.154Z,1.25
2023-08-16T23:34:18.916Z,0.30
2023-08-16T23:36:45.796Z,0.90
2023-08-16T23:39:12.532Z,0.52
2023-08-16T23:41:39.281Z,0.82
2023-08-16T23:44:06.270Z,0.63
2023-08-16T23:46:33.219Z,1.00
2023-08-16T23:49:00.065Z,0.30
2023-08-16T23:51:26.891Z,0.30
2023-08-16T23:53:53.647Z,0.63
2023-08-16T23:56:20.465Z,1.75
2023-08-16T23:58:47.247Z,1.02
